Time;durP1;ratioP1;P1;durP2;ratioP2;P2;SDS_P1;SDS_P2;PMS_P1;PMS_P2;Temp;Humidity;BMP_temperature;BMP_pressure;BME280_temperature;BME280_humidity;BME280_pressure;Samples;Min_cycle;Max_cycle;Signal;HPM_P1;HPM_P2
2021/06/05 00:00:30;;;;;;;2.17;1.40;;;20.50;85.00;;;;;;5111015;27;20030;-75
2021/06/05 00:02:56;;;;;;;2.92;1.90;;;20.50;84.40;;;;;;5104275;28;20030;-75
2021/06/05 00:05:23;;;;;;;4.30;1.70;;;20.50;84.60;;;;;;5109210;27;20026;-75
2021/06/05 00:07:51;;;;;;;2.95;1.42;;;20.50;84.30;;;;;;5097990;27;20069;-76
2021/06/05 00:10:27;;;;;;;2.47;1.45;;;20.50;84.20;;;;;;5110825;28;20020;-75
2021/06/05 00:12:54;;;;;;;3.03;1.35;;;20.50;84.60;;;;;;5104848;27;20028;-75
2021/06/05 00:15:23;;;;;;;1.80;1.40;;;20.50;84.70;;;;;;5101908;28;20024;-75
2021/06/05 00:17:49;;;;;;;3.03;1.35;;;20.50;84.50;;;;;;5129561;27;20528;-76
2021/06/05 00:20:15;;;;;;;2.40;1.80;;;20.50;84.20;;;;;;5100165;27;20019;-76
2021/06/05 00:22:40;;;;;;;1.92;1.30;;;20.50;84.00;;;;;;5106188;28;20375;-76
2021/06/05 00:25:10;;;;;;;4.13;1.17;;;20.50;83.70;;;;;;5106721;27;20055;-76
2021/06/05 00:27:35;;;;;;;1.73;1.17;;;20.60;83.70;;;;;;5116825;27;20063;-75
2021/06/05 00:30:05;;;;;;;3.97;1.25;;;20.50;84.30;;;;;;5128114;27;20496;-75
2021/06/05 00:32:31;;;;;;;3.75;1.30;;;20.50;83.50;;;;;;5107552;28;20019;-75
2021/06/05 00:34:57;;;;;;;1.73;1.15;;;20.50;83.60;;;;;;5105645;27;20110;-75
2021/06/05 00:37:23;;;;;;;1.33;1.08;;;20.40;83.70;;;;;;5100791;28;20106;-75
2021/06/05 00:39:49;;;;;;;2.08;1.20;;;20.40;83.80;;;;;;5111169;27;20054;-75
2021/06/05 00:42:14;;;;;;;1.92;1.20;;;20.40;84.00;;;;;;5117447;27;20023;-75
2021/06/05 00:44:40;;;;;;;3.55;1.23;;;20.30;84.20;;;;;;5105698;28;20020;-75
2021/06/05 00:47:06;;;;;;;1.88;1.40;;;20.30;84.30;;;;;;5094846;28;20027;-75
2021/06/05 00:49:31;;;;;;;3.15;1.20;;;20.30;84.60;;;;;;5110318;27;20063;-75
2021/06/05 00:52:01;;;;;;;2.53;1.10;;;20.20;84.60;;;;;;5097721;27;20107;-75
2021/06/05 00:54:27;;;;;;;2.30;1.48;;;20.20;84.50;;;;;;5108549;28;20122;-75
2021/06/05 00:56:55;;;;;;;2.97;1.40;;;20.20;84.70;;;;;;5104257;27;20549;-75
2021/06/05 00:59:22;;;;;;;2.10;1.20;;;20.20;84.50;;;;;;5118490;27;20461;-76
2021/06/05 01:01:48;;;;;;;2.13;0.90;;;20.20;84.90;;;;;;5113190;28;20149;-76
2021/06/05 01:04:14;;;;;;;2.35;1.00;;;20.20;84.60;;;;;;5128075;27;20102;-76
2021/06/05 01:07:02;;;;;;;1.63;1.10;;;20.10;84.90;;;;;;5102166;28;20020;-76
2021/06/05 01:09:45;;;;;;;1.63;0.98;;;20.10;84.10;;;;;;5118335;28;20023;-76
2021/06/05 01:12:16;;;;;;;1.60;1.20;;;20.10;84.70;;;;;;5098673;28;20027;-76
2021/06/05 01:14:44;;;;;;;1.33;0.80;;;20.00;84.90;;;;;;5124167;28;20016;-75
2021/06/05 01:17:17;;;;;;;1.92;1.00;;;20.00;84.40;;;;;;5107158;28;20164;-76
2021/06/05 01:20:06;;;;;;;2.67;0.90;;;20.00;84.00;;;;;;5099197;27;20058;-76
2021/06/05 01:22:55;;;;;;;2.38;0.90;;;19.90;83.60;;;;;;5111899;28;20080;-76
2021/06/05 01:25:25;;;;;;;1.15;0.88;;;19.90;83.40;;;;;;5112468;27;20083;-76
2021/06/05 01:28:04;;;;;;;2.15;0.88;;;19.90;82.90;;;;;;5119800;27;20038;-76
2021/06/05 01:30:44;;;;;;;2.10;0.80;;;20.00;82.50;;;;;;5114374;27;20475;-76
2021/06/05 01:33:13;;;;;;;1.77;0.82;;;19.90;82.60;;;;;;5106013;28;20043;-76
2021/06/05 01:35:40;;;;;;;1.75;0.80;;;19.90;82.80;;;;;;5114116;27;20099;-75
2021/06/05 01:38:08;;;;;;;2.35;0.80;;;19.90;82.90;;;;;;5101779;27;20113;-76
2021/06/05 01:40:34;;;;;;;2.40;0.80;;;19.90;83.00;;;;;;5094031;28;20115;-76
2021/06/05 01:43:03;;;;;;;2.38;0.70;;;19.90;83.10;;;;;;5127745;27;20069;-77
2021/06/05 01:45:34;;;;;;;3.95;0.95;;;20.00;83.00;;;;;;5121209;27;20076;-77
2021/06/05 01:48:00;;;;;;;2.28;0.95;;;19.90;83.10;;;;;;5115384;27;20490;-77
2021/06/05 01:50:32;;;;;;;0.82;0.63;;;19.90;83.10;;;;;;5122839;27;20101;-76
2021/06/05 01:53:03;;;;;;;3.75;0.82;;;19.90;83.00;;;;;;5107550;28;20487;-77
2021/06/05 01:55:39;;;;;;;0.90;0.70;;;19.90;82.90;;;;;;5113611;27;20034;-76
2021/06/05 01:58:13;;;;;;;1.27;0.65;;;19.90;82.80;;;;;;5119471;27;20028;-76
2021/06/05 02:00:44;;;;;;;3.22;0.60;;;19.90;82.20;;;;;;5113372;27;20019;-77
2021/06/05 02:03:13;;;;;;;1.83;0.65;;;19.80;82.70;;;;;;5105845;28;20027;-77
2021/06/05 02:05:40;;;;;;;1.23;0.80;;;19.80;83.30;;;;;;5113736;27;20023;-76
2021/06/05 02:08:07;;;;;;;1.75;0.93;;;19.80;83.80;;;;;;5101057;27;20027;-76
2021/06/05 02:10:35;;;;;;;0.85;0.70;;;19.80;83.90;;;;;;5110914;28;20024;-76
2021/06/05 02:13:00;;;;;;;1.90;0.95;;;19.80;84.00;;;;;;5108545;27;20084;-76
2021/06/05 02:15:44;;;;;;;2.08;0.63;;;19.70;84.20;;;;;;5103232;28;20027;-76
2021/06/05 02:18:18;;;;;;;2.17;0.90;;;19.80;84.20;;;;;;5085611;27;20027;-76
2021/06/05 02:20:51;;;;;;;1.35;0.82;;;19.80;84.00;;;;;;5126978;27;20050;-76
2021/06/05 02:23:24;;;;;;;3.00;1.00;;;19.70;84.30;;;;;;5129226;27;20031;-76
2021/06/05 02:25:53;;;;;;;4.28;0.98;;;19.70;84.10;;;;;;5100144;27;20503;-76
2021/06/05 02:28:19;;;;;;;2.05;0.93;;;19.70;84.20;;;;;;5112826;28;20027;-76
2021/06/05 02:30:45;;;;;;;2.30;1.10;;;19.70;84.40;;;;;;5105424;27;20019;-76
2021/06/05 02:33:11;;;;;;;2.75;0.90;;;19.70;84.60;;;;;;5123184;27;20026;-76
2021/06/05 02:35:40;;;;;;;2.65;0.88;;;19.70;84.80;;;;;;5113395;27;20118;-76
2021/06/05 02:38:08;;;;;;;1.83;1.00;;;19.70;85.00;;;;;;5084480;27;20110;-76
2021/06/05 02:40:37;;;;;;;4.20;1.05;;;19.70;85.00;;;;;;5109845;28;20020;-76
2021/06/05 02:43:07;;;;;;;2.38;0.98;;;19.60;84.90;;;;;;5108907;27;20080;-76
2021/06/05 02:45:42;;;;;;;2.90;0.90;;;19.60;85.10;;;;;;5119055;27;20457;-76
2021/06/05 02:48:09;;;;;;;2.78;0.98;;;19.70;85.00;;;;;;5084399;27;20023;-76
2021/06/05 02:50:40;;;;;;;2.13;1.25;;;19.60;85.70;;;;;;5109023;28;20030;-76
2021/06/05 02:53:06;;;;;;;4.53;1.63;;;19.60;85.20;;;;;;5127003;27;20476;-76
2021/06/05 02:55:33;;;;;;;1.83;1.17;;;19.60;85.20;;;;;;5101679;28;20084;-76
2021/06/05 02:57:58;;;;;;;4.93;1.38;;;19.60;85.50;;;;;;5113878;27;20027;-76
2021/06/05 03:00:37;;;;;;;2.40;1.27;;;19.50;85.70;;;;;;5102893;27;20203;-76
2021/06/05 03:03:06;;;;;;;1.60;1.05;;;19.50;85.90;;;;;;5124116;27;20019;-76
2021/06/05 03:05:32;;;;;;;2.05;0.98;;;19.40;86.10;;;;;;5112213;27;20169;-76
2021/06/05 03:07:58;;;;;;;2.90;1.05;;;19.40;86.10;;;;;;5099310;27;20023;-75
2021/06/05 03:10:26;;;;;;;2.50;1.48;;;19.40;86.10;;;;;;5111037;28;20027;-76
2021/06/05 03:12:52;;;;;;;1.27;1.02;;;19.40;86.20;;;;;;5105418;27;20424;-76
2021/06/05 03:15:18;;;;;;;1.98;1.02;;;19.30;86.80;;;;;;5103231;28;20111;-75
2021/06/05 03:17:45;;;;;;;4.15;1.50;;;19.20;86.60;;;;;;5131094;27;20265;-76
2021/06/05 03:20:14;;;;;;;3.08;1.20;;;19.20;86.70;;;;;;5100730;27;20023;-75
2021/06/05 03:22:40;;;;;;;3.85;1.30;;;19.20;86.70;;;;;;5126009;27;20015;-76
2021/06/05 03:25:06;;;;;;;1.60;0.90;;;19.20;86.20;;;;;;5126385;27;20070;-76
2021/06/05 03:27:32;;;;;;;6.10;1.20;;;19.30;86.10;;;;;;5100894;28;20027;-76
2021/06/05 03:29:58;;;;;;;2.83;1.17;;;19.20;86.30;;;;;;5110869;27;20020;-76
2021/06/05 03:32:25;;;;;;;3.97;1.15;;;19.20;86.40;;;;;;5110570;28;20069;-76
2021/06/05 03:34:51;;;;;;;2.40;1.08;;;19.20;86.60;;;;;;5105901;27;20084;-76
2021/06/05 03:37:16;;;;;;;2.00;1.20;;;19.20;86.60;;;;;;5121442;27;20444;-75
2021/06/05 03:39:42;;;;;;;2.67;1.13;;;19.20;86.70;;;;;;5112531;27;20042;-75
2021/06/05 03:42:09;;;;;;;2.20;1.13;;;19.20;86.80;;;;;;5111539;28;20024;-75
2021/06/05 03:44:34;;;;;;;1.67;1.00;;;19.20;86.70;;;;;;5102797;27;20403;-76
2021/06/05 03:47:00;;;;;;;2.08;1.08;;;19.20;86.50;;;;;;5123021;27;20024;-76
2021/06/05 03:49:26;;;;;;;1.92;1.58;;;19.20;86.60;;;;;;5129203;27;20133;-76
2021/06/05 03:51:52;;;;;;;2.45;1.13;;;19.20;86.70;;;;;;5098609;27;20024;-76
2021/06/05 03:54:17;;;;;;;2.30;1.00;;;19.10;87.30;;;;;;5110870;28;20022;-76
2021/06/05 03:56:43;;;;;;;2.75;1.13;;;19.10;87.70;;;;;;5122437;27;20024;-75
2021/06/05 03:59:10;;;;;;;3.53;1.30;;;19.00;87.90;;;;;;5122059;27;20032;-76
2021/06/05 04:01:36;;;;;;;3.85;1.20;;;19.00;88.10;;;;;;5094946;28;20027;-76
2021/06/05 04:04:03;;;;;;;4.78;1.40;;;18.90;88.40;;;;;;5112155;27;20456;-76
2021/06/05 04:06:29;;;;;;;2.83;1.13;;;18.90;88.80;;;;;;5102140;27;20139;-75
2021/06/05 04:08:58;;;;;;;3.58;1.50;;;18.80;89.20;;;;;;5104927;28;20042;-76
2021/06/05 04:11:25;;;;;;;1.80;1.05;;;18.90;89.10;;;;;;5109815;27;20031;-75
2021/06/05 04:13:51;;;;;;;1.77;1.20;;;18.90;89.00;;;;;;5116361;27;20103;-75
2021/06/05 04:16:17;;;;;;;2.42;1.20;;;18.90;88.70;;;;;;5110948;28;20098;-75
2021/06/05 04:18:44;;;;;;;2.15;1.25;;;18.90;88.30;;;;;;5103565;27;20084;-76
2021/06/05 04:21:14;;;;;;;3.80;1.30;;;19.00;88.00;;;;;;5121471;27;20036;-75
2021/06/05 04:23:39;;;;;;;4.70;1.48;;;19.00;88.00;;;;;;5110942;27;20423;-75
2021/06/05 04:26:06;;;;;;;3.85;1.45;;;19.00;88.20;;;;;;5098245;27;20083;-75
2021/06/05 04:28:34;;;;;;;2.50;1.20;;;19.00;88.50;;;;;;5108792;28;20491;-75
2021/06/05 04:31:00;;;;;;;3.03;0.98;;;18.90;88.80;;;;;;5078268;28;20085;-75
2021/06/05 04:33:27;;;;;;;2.65;1.40;;;18.90;88.70;;;;;;5109329;27;20456;-75
2021/06/05 04:35:55;;;;;;;1.65;1.30;;;18.90;88.60;;;;;;5116285;27;20424;-75
2021/06/05 04:38:21;;;;;;;3.00;1.50;;;18.90;89.00;;;;;;5109532;28;20019;-75
2021/06/05 04:40:47;;;;;;;1.90;1.40;;;19.00;88.30;;;;;;5103619;27;20023;-75
2021/06/05 04:43:15;;;;;;;3.22;1.17;;;19.00;88.30;;;;;;5120818;27;20039;-76
2021/06/05 04:45:41;;;;;;;4.45;1.52;;;19.00;88.30;;;;;;5110823;27;20370;-76
2021/06/05 04:48:07;;;;;;;4.03;1.60;;;19.00;88.50;;;;;;5098698;27;20023;-74
2021/06/05 04:50:36;;;;;;;2.58;1.40;;;19.00;88.70;;;;;;5132759;27;20023;-76
2021/06/05 04:53:02;;;;;;;5.18;1.50;;;19.00;88.60;;;;;;5103256;28;20035;-75
2021/06/05 04:55:28;;;;;;;2.05;1.35;;;19.20;88.40;;;;;;5109385;27;20482;-75
2021/06/05 04:57:55;;;;;;;3.10;1.40;;;19.20;88.00;;;;;;5097546;27;20067;-75
2021/06/05 05:00:35;;;;;;;3.38;1.60;;;19.30;88.00;;;;;;5110176;27;20068;-75
2021/06/05 05:03:01;;;;;;;3.35;1.70;;;19.30;88.20;;;;;;5103672;28;20027;-75
2021/06/05 05:05:27;;;;;;;1.67;1.38;;;19.40;88.40;;;;;;5109043;27;20476;-75
2021/06/05 05:07:54;;;;;;;3.58;1.60;;;19.50;87.80;;;;;;5115506;27;20031;-75
2021/06/05 05:10:24;;;;;;;6.63;2.00;;;19.50;87.30;;;;;;5109168;28;20026;-76
2021/06/05 05:12:50;;;;;;;3.20;1.40;;;19.60;87.30;;;;;;5103374;27;20022;-76
2021/06/05 05:15:16;;;;;;;2.08;1.50;;;19.60;87.10;;;;;;5101573;28;20027;-76
2021/06/05 05:17:42;;;;;;;3.05;1.55;;;19.70;86.80;;;;;;5129018;28;20027;-76
2021/06/05 05:20:12;;;;;;;2.45;1.30;;;19.70;86.70;;;;;;5098357;28;20408;-76
2021/06/05 05:22:39;;;;;;;4.40;1.52;;;19.60;86.60;;;;;;5124121;28;20020;-76
2021/06/05 05:25:06;;;;;;;2.65;1.40;;;19.60;86.30;;;;;;5105810;28;20051;-75
2021/06/05 05:27:32;;;;;;;5.80;1.60;;;19.60;86.60;;;;;;5098910;28;20034;-75
2021/06/05 05:29:58;;;;;;;3.80;1.60;;;19.60;86.80;;;;;;5107985;28;20024;-75
2021/06/05 05:32:23;;;;;;;2.67;1.30;;;19.60;86.60;;;;;;5126673;28;20020;-75
2021/06/05 05:34:49;;;;;;;2.60;1.48;;;19.60;86.50;;;;;;5103223;28;20042;-75
2021/06/05 05:37:15;;;;;;;4.35;1.40;;;19.60;86.80;;;;;;5101540;28;20027;-75
2021/06/05 05:39:40;;;;;;;2.10;1.38;;;19.50;86.70;;;;;;5110550;28;20476;-75
2021/06/05 05:42:06;;;;;;;2.25;1.20;;;19.50;86.70;;;;;;5081231;28;20038;-75
2021/06/05 05:44:32;;;;;;;5.90;1.20;;;19.50;86.30;;;;;;5106800;28;20020;-76
2021/06/05 05:46:58;;;;;;;1.58;1.20;;;19.50;86.50;;;;;;5104068;28;20027;-76
2021/06/05 05:49:25;;;;;;;2.45;1.13;;;19.50;86.50;;;;;;5118542;28;20038;-76
2021/06/05 05:51:51;;;;;;;4.88;1.40;;;19.50;86.80;;;;;;5128472;28;20023;-76
2021/06/05 05:54:17;;;;;;;1.95;1.20;;;19.50;86.70;;;;;;5117262;28;20019;-75
2021/06/05 05:56:42;;;;;;;2.63;1.30;;;19.50;86.90;;;;;;5105395;28;20032;-75
2021/06/05 05:59:08;;;;;;;2.90;1.13;;;19.50;86.80;;;;;;5106454;28;20038;-76
2021/06/05 06:01:34;;;;;;;1.85;0.90;;;19.50;87.00;;;;;;5128091;28;20031;-76
2021/06/05 06:04:00;;;;;;;2.80;1.02;;;19.50;86.60;;;;;;5097586;28;20480;-75
2021/06/05 06:06:31;;;;;;;3.53;1.50;;;19.60;86.60;;;;;;5111085;28;20030;-75
2021/06/05 06:08:57;;;;;;;2.30;1.30;;;19.60;86.70;;;;;;5108078;27;20047;-75
2021/06/05 06:11:23;;;;;;;3.17;1.30;;;19.50;86.90;;;;;;5103664;28;20074;-75
2021/06/05 06:13:49;;;;;;;4.07;1.15;;;19.50;86.90;;;;;;5113263;27;20483;-75
2021/06/05 06:16:17;;;;;;;2.97;1.30;;;19.60;87.10;;;;;;5102727;27;20031;-75
2021/06/05 06:18:44;;;;;;;3.80;1.42;;;19.60;87.40;;;;;;5108881;28;20138;-75
2021/06/05 06:21:12;;;;;;;2.53;1.10;;;19.70;87.10;;;;;;5128850;27;20023;-76
2021/06/05 06:23:40;;;;;;;3.55;1.27;;;19.70;86.70;;;;;;5100414;28;20063;-76
2021/06/05 06:26:21;;;;;;;3.13;1.30;;;19.70;86.70;;;;;;5132456;27;20097;-75
2021/06/05 06:28:48;;;;;;;1.67;1.20;;;19.80;86.60;;;;;;5121206;27;20075;-76
2021/06/05 06:31:16;;;;;;;3.53;1.10;;;19.80;86.40;;;;;;5115544;28;20080;-76
2021/06/05 06:33:42;;;;;;;3.80;1.33;;;19.90;86.30;;;;;;5113358;27;20019;-76
2021/06/05 06:36:08;;;;;;;3.80;1.45;;;20.00;86.30;;;;;;5100165;27;20030;-75
2021/06/05 06:38:37;;;;;;;2.42;1.35;;;20.00;85.80;;;;;;5106464;27;20104;-75
2021/06/05 06:41:06;;;;;;;4.93;1.30;;;20.10;86.20;;;;;;5124091;27;20030;-75
2021/06/05 06:43:32;;;;;;;3.25;1.63;;;20.10;85.90;;;;;;5108516;27;20174;-75
2021/06/05 06:46:02;;;;;;;3.58;1.80;;;20.20;85.90;;;;;;5114377;27;20055;-76
2021/06/05 06:48:28;;;;;;;3.17;1.50;;;20.20;85.60;;;;;;5106919;27;20027;-76
2021/06/05 06:50:54;;;;;;;1.70;1.42;;;20.20;85.60;;;;;;5126770;27;20033;-76
2021/06/05 06:53:20;;;;;;;3.85;1.40;;;20.30;85.90;;;;;;5121016;27;20028;-75
2021/06/05 06:55:46;;;;;;;3.20;1.50;;;20.40;85.70;;;;;;5113328;27;20054;-76
2021/06/05 06:58:12;;;;;;;2.67;1.73;;;20.50;85.20;;;;;;5101295;27;20019;-76
2021/06/05 07:00:42;;;;;;;2.50;1.45;;;20.50;85.00;;;;;;5109700;27;20076;-76
2021/06/05 07:03:09;;;;;;;3.20;1.60;;;20.50;84.70;;;;;;5096607;28;20028;-75
2021/06/05 07:05:35;;;;;;;3.00;1.40;;;20.60;84.70;;;;;;5115991;27;20023;-76
2021/06/05 07:08:18;;;;;;;4.55;1.50;;;20.70;84.70;;;;;;5118925;27;20027;-75
2021/06/05 07:10:46;;;;;;;4.82;1.73;;;20.80;84.50;;;;;;5113569;27;20020;-75
2021/06/05 07:13:12;;;;;;;2.90;1.58;;;20.70;84.00;;;;;;5098488;28;20134;-76
2021/06/05 07:15:38;;;;;;;3.30;1.50;;;20.80;83.90;;;;;;5103497;27;20031;-76
2021/06/05 07:18:05;;;;;;;4.88;1.65;;;20.80;83.90;;;;;;5112083;27;20086;-77
2021/06/05 07:20:31;;;;;;;3.67;1.40;;;20.80;84.00;;;;;;5101034;28;20032;-76
2021/06/05 07:22:57;;;;;;;3.05;1.55;;;20.80;84.40;;;;;;5099062;27;20028;-76
2021/06/05 07:25:23;;;;;;;4.20;1.45;;;20.90;83.90;;;;;;5106602;28;20385;-76
2021/06/05 07:27:49;;;;;;;5.38;1.63;;;21.00;83.60;;;;;;5101251;28;20030;-76
2021/06/05 07:30:15;;;;;;;2.60;1.48;;;21.00;83.60;;;;;;5101432;28;20024;-76
2021/06/05 07:32:41;;;;;;;3.55;1.73;;;21.00;83.70;;;;;;5097218;28;20020;-76
2021/06/05 07:35:07;;;;;;;2.17;1.80;;;21.10;83.20;;;;;;5095154;28;20020;-76
2021/06/05 07:37:33;;;;;;;3.45;1.73;;;21.10;83.00;;;;;;5101022;28;20074;-76
2021/06/05 07:40:06;;;;;;;2.25;1.80;;;21.20;83.10;;;;;;5093488;28;20028;-77
2021/06/05 07:42:31;;;;;;;3.80;1.70;;;21.20;82.90;;;;;;5092606;28;20453;-75
2021/06/05 07:44:57;;;;;;;3.63;1.98;;;21.20;82.80;;;;;;5091695;28;20032;-75
2021/06/05 07:47:23;;;;;;;1.83;1.48;;;21.20;82.50;;;;;;5104583;28;20434;-76
2021/06/05 07:49:49;;;;;;;4.57;2.05;;;21.20;82.60;;;;;;5094601;28;20115;-76
2021/06/05 07:52:23;;;;;;;2.65;1.80;;;21.20;83.20;;;;;;5092498;28;20077;-75
2021/06/05 07:54:49;;;;;;;5.43;2.13;;;21.10;83.20;;;;;;5091352;28;20483;-75
2021/06/05 07:57:15;;;;;;;5.03;2.25;;;21.10;83.50;;;;;;5092564;28;20055;-75
2021/06/05 07:59:41;;;;;;;2.97;2.00;;;21.00;83.70;;;;;;5091709;28;20476;-75
2021/06/05 08:02:07;;;;;;;2.35;1.73;;;21.00;83.50;;;;;;5094110;28;20461;-75
2021/06/05 08:04:33;;;;;;;5.05;2.08;;;20.90;83.60;;;;;;5104304;28;20028;-75
2021/06/05 08:06:58;;;;;;;4.20;2.13;;;20.90;83.40;;;;;;5092532;28;20020;-76
2021/06/05 08:09:24;;;;;;;2.80;1.77;;;20.80;83.20;;;;;;5096122;28;20042;-76
2021/06/05 08:11:50;;;;;;;3.88;1.70;;;20.80;84.30;;;;;;5093993;28;20461;-78
2021/06/05 08:14:15;;;;;;;4.55;2.20;;;20.80;83.90;;;;;;5092049;28;20164;-78
2021/06/05 08:16:41;;;;;;;5.53;2.10;;;20.80;83.90;;;;;;5091937;28;20024;-78
2021/06/05 08:19:12;;;;;;;2.75;2.28;;;20.90;83.80;;;;;;5092500;28;20031;-77
2021/06/05 08:21:39;;;;;;;6.80;2.05;;;20.90;82.80;;;;;;5091843;28;20122;-75
2021/06/05 08:24:06;;;;;;;3.78;1.90;;;21.00;82.90;;;;;;5091333;28;20048;-77
2021/06/05 08:26:31;;;;;;;4.28;1.90;;;21.10;82.50;;;;;;5091427;28;20028;-75
2021/06/05 08:28:57;;;;;;;4.30;2.00;;;21.30;82.10;;;;;;5090688;28;20054;-75
2021/06/05 08:31:23;;;;;;;3.65;1.90;;;21.40;81.90;;;;;;5077912;28;20485;-74
2021/06/05 08:33:49;;;;;;;4.40;2.03;;;21.40;81.10;;;;;;5071177;28;20039;-75
2021/06/05 08:36:16;;;;;;;3.30;1.88;;;21.50;81.20;;;;;;5091595;28;20024;-75
2021/06/05 08:38:43;;;;;;;2.47;1.90;;;21.50;81.00;;;;;;5091051;28;20028;-75
2021/06/05 08:41:31;;;;;;;3.08;2.00;;;21.60;80.90;;;;;;5091541;28;20126;-75
2021/06/05 08:44:02;;;;;;;3.42;1.83;;;21.70;81.20;;;;;;5090898;28;20020;-76
2021/06/05 08:46:38;;;;;;;4.35;1.90;;;21.90;81.40;;;;;;5072901;28;20056;-75
2021/06/05 08:49:17;;;;;;;4.40;2.53;;;21.90;80.90;;;;;;5072315;28;20036;-75
2021/06/05 08:52:06;;;;;;;4.47;2.42;;;22.00;80.30;;;;;;5082099;28;20120;-76
2021/06/05 08:55:01;;;;;;;2.80;2.13;;;22.00;79.90;;;;;;5059064;28;20032;-76
2021/06/05 08:57:45;;;;;;;3.33;2.03;;;22.00;80.00;;;;;;5069923;28;20036;-75
2021/06/05 09:00:27;;;;;;;5.00;1.98;;;21.90;79.60;;;;;;5076225;28;20094;-75
2021/06/05 09:02:57;;;;;;;3.10;1.95;;;21.90;79.30;;;;;;5075056;28;20032;-75
2021/06/05 09:05:34;;;;;;;2.40;1.80;;;21.80;79.00;;;;;;5074998;28;20041;-75
2021/06/05 09:08:00;;;;;;;2.90;1.73;;;21.80;79.90;;;;;;5083678;28;20111;-76
2021/06/05 09:10:27;;;;;;;2.97;1.63;;;21.80;79.50;;;;;;5073795;28;20024;-75
2021/06/05 09:12:53;;;;;;;2.92;2.00;;;21.80;79.10;;;;;;5072145;28;20020;-76
2021/06/05 09:15:24;;;;;;;3.83;1.95;;;21.90;78.40;;;;;;5073676;28;20035;-76
2021/06/05 09:17:53;;;;;;;4.15;1.80;;;21.90;77.80;;;;;;5087226;28;20066;-76
2021/06/05 09:20:22;;;;;;;2.17;1.83;;;22.00;77.60;;;;;;5075565;28;20375;-76
2021/06/05 09:22:48;;;;;;;2.22;1.65;;;22.10;77.90;;;;;;5079035;28;20024;-75
2021/06/05 09:25:24;;;;;;;4.18;1.58;;;22.20;78.30;;;;;;5108147;28;20048;-77
2021/06/05 09:27:50;;;;;;;2.92;1.88;;;22.20;77.70;;;;;;5130010;28;20029;-76
2021/06/05 09:30:23;;;;;;;2.88;2.00;;;22.30;77.50;;;;;;5110220;28;20023;-77
2021/06/05 09:33:00;;;;;;;1.92;1.65;;;22.30;77.30;;;;;;5109704;28;20020;-77
2021/06/05 09:35:37;;;;;;;3.50;1.67;;;22.40;76.80;;;;;;5108796;28;20030;-79
2021/06/05 09:38:33;;;;;;;4.25;1.60;;;22.50;77.10;;;;;;5098077;28;20023;-76
2021/06/05 09:41:02;;;;;;;4.22;1.90;;;22.40;76.50;;;;;;5106205;28;20080;-79
2021/06/05 09:43:28;;;;;;;1.55;1.40;;;22.50;76.80;;;;;;5108558;27;20046;-77
2021/06/05 09:46:08;;;;;;;3.35;1.85;;;22.50;76.50;;;;;;5128457;27;20490;-78
2021/06/05 09:48:43;;;;;;;3.05;1.83;;;22.50;77.40;;;;;;5119192;27;20486;-78
2021/06/05 09:51:41;;;;;;;2.65;1.63;;;22.50;77.70;;;;;;5108861;27;20034;-79
2021/06/05 09:54:14;;;;;;;4.70;1.80;;;22.50;78.00;;;;;;5118705;27;20114;-77
2021/06/05 09:56:44;;;;;;;2.17;1.98;;;22.60;77.60;;;;;;5118002;27;20053;-78
2021/06/05 09:59:15;;;;;;;3.75;1.80;;;22.50;77.00;;;;;;5118631;27;20037;-76
2021/06/05 10:02:04;;;;;;;3.13;1.92;;;22.70;76.90;;;;;;5114906;27;20038;-78
2021/06/05 10:04:33;;;;;;;2.83;1.55;;;22.90;77.10;;;;;;5104417;27;20447;-77
2021/06/05 10:06:59;;;;;;;2.42;1.95;;;23.00;75.20;;;;;;5105932;28;20077;-76
2021/06/05 10:09:25;;;;;;;3.35;1.83;;;23.10;75.10;;;;;;5112403;27;20051;-77
2021/06/05 10:11:56;;;;;;;2.72;2.00;;;23.10;75.00;;;;;;5116430;27;20063;-79
2021/06/05 10:14:47;;;;;;;2.75;1.40;;;23.00;74.90;;;;;;5102032;27;20018;-77
2021/06/05 10:17:50;;;;;;;2.53;1.50;;;22.90;74.20;;;;;;5112105;27;20031;-80
2021/06/05 10:20:28;;;;;;;2.00;1.70;;;22.90;73.60;;;;;;5077416;27;20091;-82
2021/06/05 10:22:56;;;;;;;3.03;1.60;;;23.00;73.40;;;;;;5099121;28;20019;-80
2021/06/05 10:25:42;;;;;;;3.40;1.30;;;23.00;73.40;;;;;;5099696;28;20055;-80
2021/06/05 10:28:12;;;;;;;1.50;1.40;;;23.10;73.30;;;;;;5097856;27;20398;-79
2021/06/05 10:30:56;;;;;;;2.78;1.40;;;23.20;73.20;;;;;;5099241;28;20110;-80
2021/06/05 10:33:45;;;;;;;1.95;1.50;;;23.20;73.80;;;;;;5099275;28;20106;-78
2021/06/05 10:36:20;;;;;;;2.50;1.30;;;23.20;71.80;;;;;;5115792;27;20467;-76
2021/06/05 10:38:57;;;;;;;2.40;1.80;;;23.30;72.30;;;;;;5096191;28;20106;-74
2021/06/05 10:41:32;;;;;;;2.30;2.10;;;23.30;72.60;;;;;;5099618;28;20419;-75
2021/06/05 10:43:58;;;;;;;3.45;1.42;;;23.40;73.80;;;;;;5100647;27;20464;-75
2021/06/05 10:46:59;;;;;;;1.95;1.20;;;23.40;73.30;;;;;;5102026;28;20110;-77
2021/06/05 10:49:42;;;;;;;4.20;1.20;;;23.40;72.30;;;;;;5117536;27;20023;-78
2021/06/05 10:52:11;;;;;;;1.40;1.30;;;23.40;72.50;;;;;;5094436;27;20035;-80
2021/06/05 10:54:45;;;;;;;1.83;1.40;;;23.40;73.30;;;;;;5096885;28;20027;-80
2021/06/05 10:57:37;;;;;;;2.85;1.30;;;23.40;73.60;;;;;;5097858;28;20031;-80
2021/06/05 11:00:06;;;;;;;;;;;23.50;72.70;;;;;;5103217;28;20027;-76
2021/06/05 11:02:40;;;;;;;2.25;1.23;;;23.50;72.60;;;;;;5117226;27;19911;-77
2021/06/05 11:05:24;;;;;;;1.90;1.00;;;23.70;73.20;;;;;;5096506;28;20028;-76
2021/06/05 11:08:16;;;;;;;2.28;0.98;;;23.60;70.90;;;;;;5115969;27;20103;-79
2021/06/05 11:10:50;;;;;;;2.00;0.90;;;23.60;71.60;;;;;;5116567;27;20468;-79
2021/06/05 11:13:37;;;;;;;1.42;0.80;;;23.80;72.20;;;;;;5110848;27;20031;-79
2021/06/05 11:16:04;;;;;;;2.38;0.95;;;23.80;68.20;;;;;;5098065;28;20024;-82
2021/06/05 11:18:42;;;;;;;2.45;0.90;;;23.80;69.40;;;;;;5104590;27;20118;-80
2021/06/05 11:21:22;;;;;;;2.90;0.90;;;23.80;69.30;;;;;;5105447;28;20062;-79
2021/06/05 11:23:57;;;;;;;2.35;0.70;;;23.70;69.60;;;;;;5113131;27;20043;-79
2021/06/05 11:26:35;;;;;;;0.82;0.70;;;23.80;69.80;;;;;;5103310;27;20051;-79
2021/06/05 11:29:21;;;;;;;1.65;1.00;;;23.80;70.10;;;;;;5108033;27;20106;-78
2021/06/05 11:32:11;;;;;;;1.20;0.82;;;23.80;69.80;;;;;;5085075;27;20134;-76
2021/06/05 11:34:36;;;;;;;1.52;0.80;;;23.80;69.70;;;;;;5116352;27;20031;-76
2021/06/05 11:37:12;;;;;;;1.63;1.00;;;23.90;69.40;;;;;;5134879;27;20027;-76
2021/06/05 11:39:46;;;;;;;1.10;0.75;;;24.10;69.50;;;;;;5116067;27;20384;-75
2021/06/05 11:42:21;;;;;;;1.75;0.93;;;24.20;69.30;;;;;;5084768;27;20051;-76
2021/06/05 11:44:50;;;;;;;3.20;0.95;;;24.20;68.50;;;;;;5106444;28;20073;-75
2021/06/05 11:47:15;;;;;;;1.17;0.77;;;24.10;68.80;;;;;;5127294;27;20444;-75
2021/06/05 11:49:41;;;;;;;1.88;1.05;;;24.00;69.60;;;;;;5133528;27;20079;-75
2021/06/05 11:52:33;;;;;;;1.27;1.00;;;23.90;70.10;;;;;;5099227;27;20023;-75
2021/06/05 11:55:11;;;;;;;2.53;0.77;;;23.80;70.90;;;;;;5104466;28;20028;-75
2021/06/05 11:57:40;;;;;;;1.85;0.90;;;23.70;71.10;;;;;;5129590;27;20031;-76
2021/06/05 12:00:13;;;;;;;0.70;0.63;;;23.80;71.60;;;;;;5083209;28;20061;-75
2021/06/05 12:02:42;;;;;;;0.93;0.73;;;23.80;70.30;;;;;;5112778;28;20028;-76
2021/06/05 12:05:18;;;;;;;1.75;0.82;;;23.80;71.10;;;;;;5107819;27;20046;-75
2021/06/05 12:07:44;;;;;;;1.23;0.70;;;23.90;70.30;;;;;;5115804;27;20473;-75
2021/06/05 12:10:29;;;;;;;0.80;0.63;;;23.80;70.00;;;;;;5106300;27;20019;-75
2021/06/05 12:12:54;;;;;;;0.65;0.60;;;23.80;69.50;;;;;;5122858;27;20047;-75
2021/06/05 12:15:25;;;;;;;1.23;0.40;;;23.80;68.80;;;;;;5108876;27;20062;-76
2021/06/05 12:18:23;;;;;;;0.50;0.32;;;23.80;68.00;;;;;;5113189;27;20024;-75
2021/06/05 12:20:55;;;;;;;1.13;0.60;;;23.80;66.60;;;;;;5104185;27;20125;-75
2021/06/05 12:23:24;;;;;;;0.25;0.20;;;23.60;67.50;;;;;;5100155;27;20036;-75
2021/06/05 12:25:50;;;;;;;0.22;0.22;;;23.40;67.70;;;;;;5114865;27;20039;-77
2021/06/05 12:28:23;;;;;;;0.35;0.32;;;23.10;68.20;;;;;;5115079;27;20028;-75
2021/06/05 12:30:51;;;;;;;1.02;0.30;;;23.00;69.40;;;;;;5097996;28;20032;-75
2021/06/05 12:33:33;;;;;;;2.72;0.20;;;22.70;70.50;;;;;;5094611;28;20020;-74
2021/06/05 12:36:13;;;;;;;0.30;0.10;;;22.40;70.80;;;;;;5094104;28;20016;-75
2021/06/05 12:38:41;;;;;;;0.82;0.20;;;22.30;71.80;;;;;;5094790;28;20400;-75
2021/06/05 12:41:11;;;;;;;0.73;0.10;;;21.90;73.50;;;;;;5113708;28;20035;-75
2021/06/05 12:43:39;;;;;;;0.40;0.20;;;21.80;76.10;;;;;;5094894;28;20027;-75
2021/06/05 12:46:09;;;;;;;1.50;0.73;;;21.80;77.70;;;;;;5095043;28;20031;-75
2021/06/05 12:48:36;;;;;;;1.63;0.45;;;21.70;79.40;;;;;;5094739;28;20035;-74
2021/06/05 12:51:05;;;;;;;1.75;0.20;;;21.50;81.00;;;;;;5112612;28;20445;-75
2021/06/05 12:53:31;;;;;;;1.20;0.20;;;21.40;80.20;;;;;;5094432;28;20051;-75
2021/06/05 12:56:06;;;;;;;0.40;0.40;;;21.40;81.50;;;;;;5094066;28;20426;-75
2021/06/05 12:58:45;;;;;;;0.93;0.47;;;21.30;82.30;;;;;;5112898;28;20031;-75
2021/06/05 13:01:35;;;;;;;1.23;0.50;;;21.30;82.10;;;;;;5095147;28;20055;-75
2021/06/05 13:04:02;;;;;;;0.30;0.30;;;21.30;82.50;;;;;;5113025;28;20180;-75